sensor_id;sensor_type;location;lat;lon;timestamp;temperature;humidity
11577;DHT22;5844;51.496;6.788;2023-02-03T00:02:08;9.40;99.90
11577;DHT22;5844;51.496;6.788;2023-02-03T00:04:34;9.40;99.90
11577;DHT22;5844;51.496;6.788;2023-02-03T00:06:59;9.30;99.90
11577;DHT22;5844;51.496;6.788;2023-02-03T00:09:25;9.40;99.90
11577;DHT22;5844;51.496;6.788;2023-02-03T00:11:51;9.40;99.90
11577;DHT22;5844;51.496;6.788;2023-02-03T00:14:16;9.40;99.90
11577;DHT22;5844;51.496;6.788;2023-02-03T00:16:42;9.30;99.90
11577;DHT22;5844;51.496;6.788;2023-02-03T00:19:07;9.40;99.90
11577;DHT22;5844;51.496;6.788;2023-02-03T00:21:33;9.30;99.90
11577;DHT22;5844;51.496;6.788;2023-02-03T00:23:59;9.30;99.90
11577;DHT22;5844;51.496;6.788;2023-02-03T00:26:24;9.40;99.90
11577;DHT22;5844;51.496;6.788;2023-02-03T00:28:52;9.40;99.90
11577;DHT22;5844;51.496;6.788;2023-02-03T00:31:22;9.30;99.90
11577;DHT22;5844;51.496;6.788;2023-02-03T00:33:53;9.30;99.90
11577;DHT22;5844;51.496;6.788;2023-02-03T00:36:19;9.40;99.90
11577;DHT22;5844;51.496;6.788;2023-02-03T00:38:45;9.30;99.90
11577;DHT22;5844;51.496;6.788;2023-02-03T00:41:10;9.30;99.90
11577;DHT22;5844;51.496;6.788;2023-02-03T00:43:36;9.40;99.90
11577;DHT22;5844;51.496;6.788;2023-02-03T00:46:02;9.30;99.90
11577;DHT22;5844;51.496;6.788;2023-02-03T00:48:28;9.40;99.90
11577;DHT22;5844;51.496;6.788;2023-02-03T00:50:54;9.40;99.90
11577;DHT22;5844;51.496;6.788;2023-02-03T00:53:19;9.40;99.90
11577;DHT22;5844;51.496;6.788;2023-02-03T00:55:45;9.40;99.90
11577;DHT22;5844;51.496;6.788;2023-02-03T00:58:11;9.40;99.90
11577;DHT22;5844;51.496;6.788;2023-02-03T01:00:37;9.40;99.90
11577;DHT22;5844;51.496;6.788;2023-02-03T01:03:02;9.40;99.90
11577;DHT22;5844;51.496;6.788;2023-02-03T01:05:28;9.50;99.90
11577;DHT22;5844;51.496;6.788;2023-02-03T01:07:53;9.50;99.90
11577;DHT22;5844;51.496;6.788;2023-02-03T01:10:19;9.50;99.90
11577;DHT22;5844;51.496;6.788;2023-02-03T01:12:45;9.50;99.90
11577;DHT22;5844;51.496;6.788;2023-02-03T01:15:10;9.50;99.90
11577;DHT22;5844;51.496;6.788;2023-02-03T01:17:36;9.50;99.90
11577;DHT22;5844;51.496;6.788;2023-02-03T01:20:02;9.60;99.90
11577;DHT22;5844;51.496;6.788;2023-02-03T01:22:28;9.60;99.90
11577;DHT22;5844;51.496;6.788;2023-02-03T01:24:55;9.60;99.90
11577;DHT22;5844;51.496;6.788;2023-02-03T01:27:20;9.60;99.90
11577;DHT22;5844;51.496;6.788;2023-02-03T01:29:46;9.70;99.90
11577;DHT22;5844;51.496;6.788;2023-02-03T01:32:11;9.70;99.90
11577;DHT22;5844;51.496;6.788;2023-02-03T01:34:37;9.70;99.90
11577;DHT22;5844;51.496;6.788;2023-02-03T01:37:03;9.70;99.90
11577;DHT22;5844;51.496;6.788;2023-02-03T01:39:29;9.70;99.90
11577;DHT22;5844;51.496;6.788;2023-02-03T01:41:55;9.80;99.90
11577;DHT22;5844;51.496;6.788;2023-02-03T01:47:24;9.70;99.90
11577;DHT22;5844;51.496;6.788;2023-02-03T01:49:56;9.70;99.90
11577;DHT22;5844;51.496;6.788;2023-02-03T01:52:22;9.70;99.90
11577;DHT22;5844;51.496;6.788;2023-02-03T01:54:49;9.70;99.90
11577;DHT22;5844;51.496;6.788;2023-02-03T01:57:22;9.80;99.90
11577;DHT22;5844;51.496;6.788;2023-02-03T01:59:51;9.80;99.90
11577;DHT22;5844;51.496;6.788;2023-02-03T02:02:18;9.80;99.90
11577;DHT22;5844;51.496;6.788;2023-02-03T02:05:06;9.70;99.90
11577;DHT22;5844;51.496;6.788;2023-02-03T02:07:33;9.80;99.90
11577;DHT22;5844;51.496;6.788;2023-02-03T02:10:00;9.80;99.90
11577;DHT22;5844;51.496;6.788;2023-02-03T02:12:26;9.90;99.90
11577;DHT22;5844;51.496;6.788;2023-02-03T02:14:52;9.90;99.90
11577;DHT22;5844;51.496;6.788;2023-02-03T02:17:34;10.00;99.90
11577;DHT22;5844;51.496;6.788;2023-02-03T02:20:28;9.90;99.90
11577;DHT22;5844;51.496;6.788;2023-02-03T02:23:33;9.80;99.90
11577;DHT22;5844;51.496;6.788;2023-02-03T02:26:27;9.80;99.90
11577;DHT22;5844;51.496;6.788;2023-02-03T02:29:22;9.70;99.90
11577;DHT22;5844;51.496;6.788;2023-02-03T02:31:56;9.70;99.90
11577;DHT22;5844;51.496;6.788;2023-02-03T02:37:42;9.70;99.90
11577;DHT22;5844;51.496;6.788;2023-02-03T02:43:11;9.60;99.90
11577;DHT22;5844;51.496;6.788;2023-02-03T02:51:34;9.60;99.90
11577;DHT22;5844;51.496;6.788;2023-02-03T02:54:04;9.60;99.90
11577;DHT22;5844;51.496;6.788;2023-02-03T02:56:31;9.60;99.90
11577;DHT22;5844;51.496;6.788;2023-02-03T02:59:01;9.70;99.90
11577;DHT22;5844;51.496;6.788;2023-02-03T03:01:29;9.60;99.90
11577;DHT22;5844;51.496;6.788;2023-02-03T03:03:55;9.60;99.90
11577;DHT22;5844;51.496;6.788;2023-02-03T03:06:24;9.60;99.90
11577;DHT22;5844;51.496;6.788;2023-02-03T03:09:03;9.60;99.90
11577;DHT22;5844;51.496;6.788;2023-02-03T03:11:34;9.60;99.90
11577;DHT22;5844;51.496;6.788;2023-02-03T03:14:02;9.50;99.90
11577;DHT22;5844;51.496;6.788;2023-02-03T03:16:32;9.60;99.90
11577;DHT22;5844;51.496;6.788;2023-02-03T03:19:16;9.60;99.90
11577;DHT22;5844;51.496;6.788;2023-02-03T03:21:48;9.60;99.90
11577;DHT22;5844;51.496;6.788;2023-02-03T03:24:19;9.60;99.90
11577;DHT22;5844;51.496;6.788;2023-02-03T03:27:06;9.60;99.90
11577;DHT22;5844;51.496;6.788;2023-02-03T03:29:44;9.50;99.90
11577;DHT22;5844;51.496;6.788;2023-02-03T03:32:11;9.60;99.90
11577;DHT22;5844;51.496;6.788;2023-02-03T03:34:38;9.60;99.90
11577;DHT22;5844;51.496;6.788;2023-02-03T03:37:24;9.50;99.90
11577;DHT22;5844;51.496;6.788;2023-02-03T03:42:37;9.60;99.90
11577;DHT22;5844;51.496;6.788;2023-02-03T03:45:18;9.60;99.90
11577;DHT22;5844;51.496;6.788;2023-02-03T03:48:07;9.60;99.90
11577;DHT22;5844;51.496;6.788;2023-02-03T03:50:37;9.60;99.90
11577;DHT22;5844;51.496;6.788;2023-02-03T03:53:06;9.60;99.90
11577;DHT22;5844;51.496;6.788;2023-02-03T03:55:35;9.60;99.90
11577;DHT22;5844;51.496;6.788;2023-02-03T03:58:11;9.60;99.90
11577;DHT22;5844;51.496;6.788;2023-02-03T04:00:40;9.60;99.90
11577;DHT22;5844;51.496;6.788;2023-02-03T04:03:19;9.60;99.90
11577;DHT22;5844;51.496;6.788;2023-02-03T04:05:46;9.60;99.90
11577;DHT22;5844;51.496;6.788;2023-02-03T04:08:12;9.60;99.90
11577;DHT22;5844;51.496;6.788;2023-02-03T04:10:39;9.70;99.90
11577;DHT22;5844;51.496;6.788;2023-02-03T04:13:07;9.70;99.90
11577;DHT22;5844;51.496;6.788;2023-02-03T04:15:33;9.70;99.90
11577;DHT22;5844;51.496;6.788;2023-02-03T04:17:59;9.70;99.90
11577;DHT22;5844;51.496;6.788;2023-02-03T04:20:28;9.70;99.90
11577;DHT22;5844;51.496;6.788;2023-02-03T04:22:54;9.70;99.90
11577;DHT22;5844;51.496;6.788;2023-02-03T04:25:20;9.70;99.90
11577;DHT22;5844;51.496;6.788;2023-02-03T04:27:45;9.60;99.90
11577;DHT22;5844;51.496;6.788;2023-02-03T04:30:12;9.70;99.90
11577;DHT22;5844;51.496;6.788;2023-02-03T04:32:38;10.00;99.90
11577;DHT22;5844;51.496;6.788;2023-02-03T04:35:05;9.60;99.90
11577;DHT22;5844;51.496;6.788;2023-02-03T04:37:31;9.70;99.90
11577;DHT22;5844;51.496;6.788;2023-02-03T04:39:57;9.70;99.90
11577;DHT22;5844;51.496;6.788;2023-02-03T04:42:23;9.70;99.90
11577;DHT22;5844;51.496;6.788;2023-02-03T04:44:49;9.70;99.90
11577;DHT22;5844;51.496;6.788;2023-02-03T04:47:16;9.70;99.90
11577;DHT22;5844;51.496;6.788;2023-02-03T04:49:42;9.70;99.90
11577;DHT22;5844;51.496;6.788;2023-02-03T04:52:07;9.70;99.90
11577;DHT22;5844;51.496;6.788;2023-02-03T04:54:33;9.80;99.90
11577;DHT22;5844;51.496;6.788;2023-02-03T04:56:59;9.80;99.90
11577;DHT22;5844;51.496;6.788;2023-02-03T04:59:25;9.80;99.90
11577;DHT22;5844;51.496;6.788;2023-02-03T05:01:51;9.70;99.90
11577;DHT22;5844;51.496;6.788;2023-02-03T05:04:16;9.70;99.90
11577;DHT22;5844;51.496;6.788;2023-02-03T05:06:42;9.70;99.90
11577;DHT22;5844;51.496;6.788;2023-02-03T05:09:08;9.70;99.90
11577;DHT22;5844;51.496;6.788;2023-02-03T05:11:33;9.70;99.90
11577;DHT22;5844;51.496;6.788;2023-02-03T05:13:59;9.70;99.90
11577;DHT22;5844;51.496;6.788;2023-02-03T05:16:25;9.70;99.90
11577;DHT22;5844;51.496;6.788;2023-02-03T05:18:50;9.70;99.90
11577;DHT22;5844;51.496;6.788;2023-02-03T05:21:16;9.70;99.90
11577;DHT22;5844;51.496;6.788;2023-02-03T05:23:42;9.70;99.90
11577;DHT22;5844;51.496;6.788;2023-02-03T05:26:08;9.70;99.90
11577;DHT22;5844;51.496;6.788;2023-02-03T05:28:34;9.70;99.90
11577;DHT22;5844;51.496;6.788;2023-02-03T05:31:00;9.00;99.90
11577;DHT22;5844;51.496;6.788;2023-02-03T05:33:27;9.80;99.90
11577;DHT22;5844;51.496;6.788;2023-02-03T05:35:52;9.70;99.90
11577;DHT22;5844;51.496;6.788;2023-02-03T05:38:18;9.80;99.90
11577;DHT22;5844;51.496;6.788;2023-02-03T05:40:50;9.80;99.90
11577;DHT22;5844;51.496;6.788;2023-02-03T05:43:35;9.80;99.90
11577;DHT22;5844;51.496;6.788;2023-02-03T05:46:02;9.80;99.90
11577;DHT22;5844;51.496;6.788;2023-02-03T05:48:29;9.80;99.90
11577;DHT22;5844;51.496;6.788;2023-02-03T05:50:55;9.80;99.90
11577;DHT22;5844;51.496;6.788;2023-02-03T05:53:21;9.80;99.90
11577;DHT22;5844;51.496;6.788;2023-02-03T05:55:46;9.80;99.90
11577;DHT22;5844;51.496;6.788;2023-02-03T05:58:12;9.80;99.90
11577;DHT22;5844;51.496;6.788;2023-02-03T06:00:38;9.90;99.90
11577;DHT22;5844;51.496;6.788;2023-02-03T06:03:03;9.80;99.90
11577;DHT22;5844;51.496;6.788;2023-02-03T06:05:30;9.80;99.90
11577;DHT22;5844;51.496;6.788;2023-02-03T06:07:57;9.80;99.90
11577;DHT22;5844;51.496;6.788;2023-02-03T06:10:23;9.90;99.90
11577;DHT22;5844;51.496;6.788;2023-02-03T06:12:49;9.90;99.90
11577;DHT22;5844;51.496;6.788;2023-02-03T06:15:16;9.80;99.90
11577;DHT22;5844;51.496;6.788;2023-02-03T06:17:46;9.90;99.90
11577;DHT22;5844;51.496;6.788;2023-02-03T06:20:13;9.90;99.90
11577;DHT22;5844;51.496;6.788;2023-02-03T06:22:39;9.80;99.90
11577;DHT22;5844;51.496;6.788;2023-02-03T06:25:05;9.80;99.90
11577;DHT22;5844;51.496;6.788;2023-02-03T06:27:31;9.80;99.90
11577;DHT22;5844;51.496;6.788;2023-02-03T06:29:56;9.80;99.90
11577;DHT22;5844;51.496;6.788;2023-02-03T06:32:22;9.80;99.90
11577;DHT22;5844;51.496;6.788;2023-02-03T06:34:48;9.90;99.90
11577;DHT22;5844;51.496;6.788;2023-02-03T06:37:14;9.80;99.90
11577;DHT22;5844;51.496;6.788;2023-02-03T06:39:39;9.90;99.90
11577;DHT22;5844;51.496;6.788;2023-02-03T06:42:05;9.90;99.90
11577;DHT22;5844;51.496;6.788;2023-02-03T06:44:31;9.90;99.90
11577;DHT22;5844;51.496;6.788;2023-02-03T06:46:57;9.90;99.90
11577;DHT22;5844;51.496;6.788;2023-02-03T06:49:23;9.90;99.90
11577;DHT22;5844;51.496;6.788;2023-02-03T06:51:49;9.90;99.90
11577;DHT22;5844;51.496;6.788;2023-02-03T06:54:17;9.90;99.90
11577;DHT22;5844;51.496;6.788;2023-02-03T06:56:42;9.90;99.90
11577;DHT22;5844;51.496;6.788;2023-02-03T06:59:08;9.90;99.90
11577;DHT22;5844;51.496;6.788;2023-02-03T07:01:35;9.90;99.90
11577;DHT22;5844;51.496;6.788;2023-02-03T07:04:01;9.90;99.90
11577;DHT22;5844;51.496;6.788;2023-02-03T07:06:28;9.90;99.90
11577;DHT22;5844;51.496;6.788;2023-02-03T07:08:57;9.90;99.90
11577;DHT22;5844;51.496;6.788;2023-02-03T07:11:23;9.90;99.90
11577;DHT22;5844;51.496;6.788;2023-02-03T07:13:50;9.90;99.90
11577;DHT22;5844;51.496;6.788;2023-02-03T07:16:16;9.90;99.90
11577;DHT22;5844;51.496;6.788;2023-02-03T07:18:41;9.90;99.90
11577;DHT22;5844;51.496;6.788;2023-02-03T07:21:07;9.90;99.90
11577;DHT22;5844;51.496;6.788;2023-02-03T07:23:33;10.00;99.90
11577;DHT22;5844;51.496;6.788;2023-02-03T07:25:59;10.00;99.90
11577;DHT22;5844;51.496;6.788;2023-02-03T07:28:25;10.00;99.90
11577;DHT22;5844;51.496;6.788;2023-02-03T07:30:51;10.00;99.90
11577;DHT22;5844;51.496;6.788;2023-02-03T07:33:17;10.00;99.90
11577;DHT22;5844;51.496;6.788;2023-02-03T07:35:42;10.10;99.90
11577;DHT22;5844;51.496;6.788;2023-02-03T07:38:08;10.10;99.90
11577;DHT22;5844;51.496;6.788;2023-02-03T07:40:34;10.10;99.90
11577;DHT22;5844;51.496;6.788;2023-02-03T07:42:59;10.10;99.90
11577;DHT22;5844;51.496;6.788;2023-02-03T07:45:25;10.00;99.90
11577;DHT22;5844;51.496;6.788;2023-02-03T07:47:51;10.10;99.90
11577;DHT22;5844;51.496;6.788;2023-02-03T07:50:17;10.10;99.90
11577;DHT22;5844;51.496;6.788;2023-02-03T07:52:42;10.10;99.90
11577;DHT22;5844;51.496;6.788;2023-02-03T07:55:08;10.10;99.90
11577;DHT22;5844;51.496;6.788;2023-02-03T07:57:34;10.10;99.90
11577;DHT22;5844;51.496;6.788;2023-02-03T08:00:02;10.10;99.90
11577;DHT22;5844;51.496;6.788;2023-02-03T08:02:28;10.10;99.90
11577;DHT22;5844;51.496;6.788;2023-02-03T08:04:54;10.20;99.90
11577;DHT22;5844;51.496;6.788;2023-02-03T08:07:22;10.10;99.90
11577;DHT22;5844;51.496;6.788;2023-02-03T08:09:47;10.10;99.90
11577;DHT22;5844;51.496;6.788;2023-02-03T08:12:13;10.10;99.90
11577;DHT22;5844;51.496;6.788;2023-02-03T08:14:39;10.10;99.90
11577;DHT22;5844;51.496;6.788;2023-02-03T08:17:04;10.20;99.90
11577;DHT22;5844;51.496;6.788;2023-02-03T08:19:30;10.10;99.90
11577;DHT22;5844;51.496;6.788;2023-02-03T08:21:56;10.20;99.90
11577;DHT22;5844;51.496;6.788;2023-02-03T08:24:23;10.20;99.90
11577;DHT22;5844;51.496;6.788;2023-02-03T08:26:49;10.20;99.90
11577;DHT22;5844;51.496;6.788;2023-02-03T08:29:14;10.20;99.90
11577;DHT22;5844;51.496;6.788;2023-02-03T08:31:41;10.20;99.90
11577;DHT22;5844;51.496;6.788;2023-02-03T08:34:06;10.20;99.90
11577;DHT22;5844;51.496;6.788;2023-02-03T08:36:32;10.20;99.90
11577;DHT22;5844;51.496;6.788;2023-02-03T08:38:58;10.20;99.90
11577;DHT22;5844;51.496;6.788;2023-02-03T08:41:23;10.20;99.90
11577;DHT22;5844;51.496;6.788;2023-02-03T08:43:49;10.20;99.90
11577;DHT22;5844;51.496;6.788;2023-02-03T08:46:15;10.30;99.90
11577;DHT22;5844;51.496;6.788;2023-02-03T08:48:40;10.30;99.90
11577;DHT22;5844;51.496;6.788;2023-02-03T08:51:15;10.30;99.90
11577;DHT22;5844;51.496;6.788;2023-02-03T08:53:40;10.40;99.90
11577;DHT22;5844;51.496;6.788;2023-02-03T08:56:08;10.30;99.90
11577;DHT22;5844;51.496;6.788;2023-02-03T08:58:35;10.30;99.90
11577;DHT22;5844;51.496;6.788;2023-02-03T09:01:08;10.30;99.90
11577;DHT22;5844;51.496;6.788;2023-02-03T09:03:35;10.30;99.90
11577;DHT22;5844;51.496;6.788;2023-02-03T09:06:01;10.30;99.90
11577;DHT22;5844;51.496;6.788;2023-02-03T09:08:27;10.30;99.90
11577;DHT22;5844;51.496;6.788;2023-02-03T09:10:53;10.30;99.90
11577;DHT22;5844;51.496;6.788;2023-02-03T09:13:19;10.40;99.90
11577;DHT22;5844;51.496;6.788;2023-02-03T09:15:45;10.40;99.90
11577;DHT22;5844;51.496;6.788;2023-02-03T09:18:11;10.40;99.90
11577;DHT22;5844;51.496;6.788;2023-02-03T09:20:36;10.40;99.90
11577;DHT22;5844;51.496;6.788;2023-02-03T09:23:02;10.40;99.90
11577;DHT22;5844;51.496;6.788;2023-02-03T09:25:28;10.60;99.90
11577;DHT22;5844;51.496;6.788;2023-02-03T09:27:53;10.50;99.90
11577;DHT22;5844;51.496;6.788;2023-02-03T09:30:19;10.50;99.90
11577;DHT22;5844;51.496;6.788;2023-02-03T09:32:45;10.50;99.90
11577;DHT22;5844;51.496;6.788;2023-02-03T09:35:14;10.50;99.90
11577;DHT22;5844;51.496;6.788;2023-02-03T09:37:39;10.50;99.90
11577;DHT22;5844;51.496;6.788;2023-02-03T09:40:06;10.50;99.90
11577;DHT22;5844;51.496;6.788;2023-02-03T09:45:26;10.50;99.90
11577;DHT22;5844;51.496;6.788;2023-02-03T09:47:53;10.50;99.90
11577;DHT22;5844;51.496;6.788;2023-02-03T09:50:25;10.50;99.90
11577;DHT22;5844;51.496;6.788;2023-02-03T09:52:52;10.50;99.90
11577;DHT22;5844;51.496;6.788;2023-02-03T09:55:29;10.50;99.90
11577;DHT22;5844;51.496;6.788;2023-02-03T09:58:17;10.60;99.90
11577;DHT22;5844;51.496;6.788;2023-02-03T10:03:38;10.60;99.90
11577;DHT22;5844;51.496;6.788;2023-02-03T10:06:22;10.60;99.90
11577;DHT22;5844;51.496;6.788;2023-02-03T10:17:46;10.70;99.90
11577;DHT22;5844;51.496;6.788;2023-02-03T10:20:22;10.70;99.90
11577;DHT22;5844;51.496;6.788;2023-02-03T10:22:59;10.70;99.90
11577;DHT22;5844;51.496;6.788;2023-02-03T10:25:42;10.70;99.90
11577;DHT22;5844;51.496;6.788;2023-02-03T10:28:20;10.70;99.90
11577;DHT22;5844;51.496;6.788;2023-02-03T10:30:54;10.70;99.90
11577;DHT22;5844;51.496;6.788;2023-02-03T10:33:21;10.70;99.90
11577;DHT22;5844;51.496;6.788;2023-02-03T10:38:29;10.70;99.90
11577;DHT22;5844;51.496;6.788;2023-02-03T10:40:57;10.80;99.90
11577;DHT22;5844;51.496;6.788;2023-02-03T10:43:23;10.70;99.90
11577;DHT22;5844;51.496;6.788;2023-02-03T10:46:07;10.70;99.90
11577;DHT22;5844;51.496;6.788;2023-02-03T10:48:33;10.70;99.90
11577;DHT22;5844;51.496;6.788;2023-02-03T10:50:58;10.80;99.90
11577;DHT22;5844;51.496;6.788;2023-02-03T10:53:34;10.80;99.90
11577;DHT22;5844;51.496;6.788;2023-02-03T10:56:04;10.80;99.90
11577;DHT22;5844;51.496;6.788;2023-02-03T10:58:32;10.70;99.90
11577;DHT22;5844;51.496;6.788;2023-02-03T11:01:12;10.80;99.90
11577;DHT22;5844;51.496;6.788;2023-02-03T11:03:59;10.80;99.90
11577;DHT22;5844;51.496;6.788;2023-02-03T11:06:26;10.80;99.90
11577;DHT22;5844;51.496;6.788;2023-02-03T11:08:52;10.80;99.90
11577;DHT22;5844;51.496;6.788;2023-02-03T11:11:26;12.00;99.90
11577;DHT22;5844;51.496;6.788;2023-02-03T11:16:30;10.70;99.90
11577;DHT22;5844;51.496;6.788;2023-02-03T11:19:03;10.80;99.90
11577;DHT22;5844;51.496;6.788;2023-02-03T11:24:20;10.70;99.90
11577;DHT22;5844;51.496;6.788;2023-02-03T11:27:21;10.80;99.90
11577;DHT22;5844;51.496;6.788;2023-02-03T11:29:49;10.80;99.90
11577;DHT22;5844;51.496;6.788;2023-02-03T11:32:17;11.00;99.90
11577;DHT22;5844;51.496;6.788;2023-02-03T11:40:13;10.80;99.90
11577;DHT22;5844;51.496;6.788;2023-02-03T11:45:25;10.90;99.90
11577;DHT22;5844;51.496;6.788;2023-02-03T11:50:59;10.90;99.90
11577;DHT22;5844;51.496;6.788;2023-02-03T11:59:18;11.00;99.90
11577;DHT22;5844;51.496;6.788;2023-02-03T12:18:32;11.10;99.90
11577;DHT22;5844;51.496;6.788;2023-02-03T12:21:29;11.10;99.90
11577;DHT22;5844;51.496;6.788;2023-02-03T12:29:24;11.10;99.90
11577;DHT22;5844;51.496;6.788;2023-02-03T12:32:03;11.20;99.90
11577;DHT22;5844;51.496;6.788;2023-02-03T12:34:41;11.20;99.90
11577;DHT22;5844;51.496;6.788;2023-02-03T12:39:52;11.20;99.90
11577;DHT22;5844;51.496;6.788;2023-02-03T12:42:25;11.20;99.90
11577;DHT22;5844;51.496;6.788;2023-02-03T12:47:37;11.20;99.90
11577;DHT22;5844;51.496;6.788;2023-02-03T12:50:18;11.20;99.90
11577;DHT22;5844;51.496;6.788;2023-02-03T12:53:03;11.20;99.90
11577;DHT22;5844;51.496;6.788;2023-02-03T12:55:50;11.20;99.90
11577;DHT22;5844;51.496;6.788;2023-02-03T12:58:38;11.20;99.90
11577;DHT22;5844;51.496;6.788;2023-02-03T13:01:15;11.10;99.90
11577;DHT22;5844;51.496;6.788;2023-02-03T13:04:12;11.10;99.90
11577;DHT22;5844;51.496;6.788;2023-02-03T13:09:52;11.10;99.90
11577;DHT22;5844;51.496;6.788;2023-02-03T13:12:41;11.10;99.90
11577;DHT22;5844;51.496;6.788;2023-02-03T13:17:48;11.30;99.90
11577;DHT22;5844;51.496;6.788;2023-02-03T13:20:19;11.40;99.90
11577;DHT22;5844;51.496;6.788;2023-02-03T13:22:45;11.40;99.90
11577;DHT22;5844;51.496;6.788;2023-02-03T13:25:20;11.40;99.90
11577;DHT22;5844;51.496;6.788;2023-02-03T13:30:45;11.50;99.90
11577;DHT22;5844;51.496;6.788;2023-02-03T13:41:41;11.40;99.90
11577;DHT22;5844;51.496;6.788;2023-02-03T13:44:15;11.40;99.90
11577;DHT22;5844;51.496;6.788;2023-02-03T13:46:47;11.40;99.90
11577;DHT22;5844;51.496;6.788;2023-02-03T13:49:27;11.30;99.90
11577;DHT22;5844;51.496;6.788;2023-02-03T13:51:54;11.40;99.90
11577;DHT22;5844;51.496;6.788;2023-02-03T13:56:54;11.30;99.90
11577;DHT22;5844;51.496;6.788;2023-02-03T13:59:29;11.30;99.90
11577;DHT22;5844;51.496;6.788;2023-02-03T14:07:37;11.30;99.90
11577;DHT22;5844;51.496;6.788;2023-02-03T14:12:59;10.70;99.90
11577;DHT22;5844;51.496;6.788;2023-02-03T14:22:57;9.20;99.90
11577;DHT22;5844;51.496;6.788;2023-02-03T14:25:25;9.10;99.90
11577;DHT22;5844;51.496;6.788;2023-02-03T14:28:11;9.20;99.90
11577;DHT22;5844;51.496;6.788;2023-02-03T14:31:03;9.10;99.90
11577;DHT22;5844;51.496;6.788;2023-02-03T14:40:05;9.10;99.90
11577;DHT22;5844;51.496;6.788;2023-02-03T14:42:23;9.10;99.90
11577;DHT22;5844;51.496;6.788;2023-02-03T14:50:50;9.20;99.90
11577;DHT22;5844;51.496;6.788;2023-02-03T14:53:32;9.20;99.90
11577;DHT22;5844;51.496;6.788;2023-02-03T14:56:30;9.20;99.90
11577;DHT22;5844;51.496;6.788;2023-02-03T14:59:16;9.20;99.90
11577;DHT22;5844;51.496;6.788;2023-02-03T15:06:48;9.40;99.90
11577;DHT22;5844;51.496;6.788;2023-02-03T15:09:44;9.40;99.90
11577;DHT22;5844;51.496;6.788;2023-02-03T15:12:22;9.40;99.90
11577;DHT22;5844;51.496;6.788;2023-02-03T15:14:48;9.40;99.90
11577;DHT22;5844;51.496;6.788;2023-02-03T15:17:27;9.40;99.90
11577;DHT22;5844;51.496;6.788;2023-02-03T15:19:53;9.40;99.90
11577;DHT22;5844;51.496;6.788;2023-02-03T15:22:29;9.50;99.90
11577;DHT22;5844;51.496;6.788;2023-02-03T15:25:00;9.50;99.90
11577;DHT22;5844;51.496;6.788;2023-02-03T15:27:30;9.60;99.90
11577;DHT22;5844;51.496;6.788;2023-02-03T15:29:55;9.50;99.90
11577;DHT22;5844;51.496;6.788;2023-02-03T15:32:31;9.70;99.90
11577;DHT22;5844;51.496;6.788;2023-02-03T15:34:58;9.60;99.90
11577;DHT22;5844;51.496;6.788;2023-02-03T15:37:52;9.70;99.90
11577;DHT22;5844;51.496;6.788;2023-02-03T15:40:19;9.60;99.90
11577;DHT22;5844;51.496;6.788;2023-02-03T15:45:34;9.60;99.90
11577;DHT22;5844;51.496;6.788;2023-02-03T15:48:04;9.60;99.90
11577;DHT22;5844;51.496;6.788;2023-02-03T15:50:48;9.60;99.90
11577;DHT22;5844;51.496;6.788;2023-02-03T15:53:26;9.60;99.90
11577;DHT22;5844;51.496;6.788;2023-02-03T15:55:56;9.70;99.90
11577;DHT22;5844;51.496;6.788;2023-02-03T15:58:26;9.60;99.90
11577;DHT22;5844;51.496;6.788;2023-02-03T16:00:58;9.70;99.90
11577;DHT22;5844;51.496;6.788;2023-02-03T16:03:45;9.70;99.90
11577;DHT22;5844;51.496;6.788;2023-02-03T16:08:47;9.70;99.90
11577;DHT22;5844;51.496;6.788;2023-02-03T16:13:57;9.70;99.90
11577;DHT22;5844;51.496;6.788;2023-02-03T16:16:34;9.60;99.90
11577;DHT22;5844;51.496;6.788;2023-02-03T16:19:03;9.70;99.90
11577;DHT22;5844;51.496;6.788;2023-02-03T16:29:44;9.70;99.90
11577;DHT22;5844;51.496;6.788;2023-02-03T16:32:29;9.70;99.90
11577;DHT22;5844;51.496;6.788;2023-02-03T16:35:13;9.80;99.90
11577;DHT22;5844;51.496;6.788;2023-02-03T16:38:10;9.70;99.90
11577;DHT22;5844;51.496;6.788;2023-02-03T16:40:57;9.60;99.90
11577;DHT22;5844;51.496;6.788;2023-02-03T16:43:41;9.70;99.90
11577;DHT22;5844;51.496;6.788;2023-02-03T16:46:25;9.70;99.90
11577;DHT22;5844;51.496;6.788;2023-02-03T16:49:08;9.70;99.90
11577;DHT22;5844;51.496;6.788;2023-02-03T16:51:52;9.80;99.90
11577;DHT22;5844;51.496;6.788;2023-02-03T16:54:18;9.80;99.90
11577;DHT22;5844;51.496;6.788;2023-02-03T16:56:44;9.70;99.90
11577;DHT22;5844;51.496;6.788;2023-02-03T16:59:10;9.80;99.90
11577;DHT22;5844;51.496;6.788;2023-02-03T17:01:36;9.80;99.90
11577;DHT22;5844;51.496;6.788;2023-02-03T17:04:02;9.70;99.90
11577;DHT22;5844;51.496;6.788;2023-02-03T17:06:28;9.70;99.90
11577;DHT22;5844;51.496;6.788;2023-02-03T17:08:54;9.70;99.90
11577;DHT22;5844;51.496;6.788;2023-02-03T17:11:21;9.70;99.90
11577;DHT22;5844;51.496;6.788;2023-02-03T17:13:48;9.60;99.90
11577;DHT22;5844;51.496;6.788;2023-02-03T17:16:16;9.70;99.90
11577;DHT22;5844;51.496;6.788;2023-02-03T17:18:43;9.80;99.90
11577;DHT22;5844;51.496;6.788;2023-02-03T17:21:12;9.70;99.90
11577;DHT22;5844;51.496;6.788;2023-02-03T17:23:38;9.80;99.90
11577;DHT22;5844;51.496;6.788;2023-02-03T17:26:04;9.80;99.90
11577;DHT22;5844;51.496;6.788;2023-02-03T17:28:30;9.80;99.90
11577;DHT22;5844;51.496;6.788;2023-02-03T17:31:04;9.80;99.90
11577;DHT22;5844;51.496;6.788;2023-02-03T17:33:31;9.80;99.90
11577;DHT22;5844;51.496;6.788;2023-02-03T17:36:07;9.90;99.90
11577;DHT22;5844;51.496;6.788;2023-02-03T17:38:38;9.90;99.90
11577;DHT22;5844;51.496;6.788;2023-02-03T17:41:12;9.80;99.90
11577;DHT22;5844;51.496;6.788;2023-02-03T17:43:38;9.80;99.90
11577;DHT22;5844;51.496;6.788;2023-02-03T17:46:05;9.80;99.90
11577;DHT22;5844;51.496;6.788;2023-02-03T17:48:31;9.80;99.90
11577;DHT22;5844;51.496;6.788;2023-02-03T17:51:13;9.80;99.90
11577;DHT22;5844;51.496;6.788;2023-02-03T17:53:39;9.80;99.90
11577;DHT22;5844;51.496;6.788;2023-02-03T17:56:10;9.70;99.90
11577;DHT22;5844;51.496;6.788;2023-02-03T17:58:37;9.70;99.90
11577;DHT22;5844;51.496;6.788;2023-02-03T18:01:15;9.60;99.90
11577;DHT22;5844;51.496;6.788;2023-02-03T18:03:54;9.60;99.90
11577;DHT22;5844;51.496;6.788;2023-02-03T18:06:21;9.60;99.90
11577;DHT22;5844;51.496;6.788;2023-02-03T18:08:47;9.60;99.90
11577;DHT22;5844;51.496;6.788;2023-02-03T18:11:14;9.60;99.90
11577;DHT22;5844;51.496;6.788;2023-02-03T18:13:42;9.60;99.90
11577;DHT22;5844;51.496;6.788;2023-02-03T18:16:12;9.60;99.90
11577;DHT22;5844;51.496;6.788;2023-02-03T18:18:40;9.60;99.90
11577;DHT22;5844;51.496;6.788;2023-02-03T18:21:07;9.60;99.90
11577;DHT22;5844;51.496;6.788;2023-02-03T18:23:35;9.50;99.90
11577;DHT22;5844;51.496;6.788;2023-02-03T18:26:02;9.50;99.90
11577;DHT22;5844;51.496;6.788;2023-02-03T18:28:28;9.50;99.90
11577;DHT22;5844;51.496;6.788;2023-02-03T18:31:04;9.40;99.90
11577;DHT22;5844;51.496;6.788;2023-02-03T18:33:30;9.30;99.90
11577;DHT22;5844;51.496;6.788;2023-02-03T18:35:56;9.30;99.90
11577;DHT22;5844;51.496;6.788;2023-02-03T18:38:25;9.30;99.90
11577;DHT22;5844;51.496;6.788;2023-02-03T18:40:51;9.40;99.90
11577;DHT22;5844;51.496;6.788;2023-02-03T18:43:16;9.30;99.90
11577;DHT22;5844;51.496;6.788;2023-02-03T18:45:42;9.20;99.90
11577;DHT22;5844;51.496;6.788;2023-02-03T18:48:08;9.20;99.90
11577;DHT22;5844;51.496;6.788;2023-02-03T18:50:33;9.20;99.90